createdAt,value
2019-06-10T00:00:24.343Z,26.70
2019-06-10T00:02:57.912Z,26.70
2019-06-10T00:05:31.252Z,26.80
2019-06-10T00:08:06.964Z,26.80
2019-06-10T00:10:41.755Z,26.90
2019-06-10T00:13:13.647Z,26.90
2019-06-10T00:15:51.348Z,27.00
2019-06-10T00:18:38.410Z,27.00
2019-06-10T00:20:57.237Z,27.00
2019-06-10T00:23:31.526Z,27.10
2019-06-10T00:26:05.796Z,27.10
2019-06-10T00:28:40.529Z,27.20
2019-06-10T00:31:11.714Z,27.20
2019-06-10T00:33:44.155Z,27.20
2019-06-10T00:36:17.890Z,27.20
2019-06-10T00:38:51.730Z,27.30
2019-06-10T00:41:24.322Z,27.30
2019-06-10T00:44:00.849Z,27.40
2019-06-10T00:46:32.847Z,27.40
2019-06-10T00:49:07.496Z,27.40
2019-06-10T00:51:41.473Z,27.50
2019-06-10T00:54:15.466Z,27.60
2019-06-10T00:56:46.777Z,27.60
2019-06-10T00:59:22.119Z,27.70
2019-06-10T01:01:53.787Z,27.80
2019-06-10T01:04:27.184Z,27.80
2019-06-10T01:07:00.848Z,27.80
2019-06-10T01:09:34.281Z,27.90
2019-06-10T01:12:06.895Z,28.00
2019-06-10T01:14:41.169Z,28.10
2019-06-10T01:17:15.243Z,28.10
2019-06-10T01:19:50.783Z,28.20
2019-06-10T01:22:21.813Z,28.20
2019-06-10T01:24:55.186Z,28.30
2019-06-10T01:27:27.969Z,28.30
2019-06-10T01:30:01.702Z,28.40
2019-06-10T01:32:34.522Z,28.40
2019-06-10T01:35:11.068Z,28.50
2019-06-10T01:37:42.749Z,28.50
2019-06-10T01:40:16.817Z,28.60
2019-06-10T01:42:50.499Z,28.70
2019-06-10T01:45:21.762Z,28.70
2019-06-10T01:47:53.126Z,28.80
2019-06-10T01:50:25.082Z,28.90
2019-06-10T01:52:57.147Z,28.90
2019-06-10T01:55:28.148Z,29.00
2019-06-10T01:58:00.876Z,29.00
2019-06-10T02:00:33.425Z,29.10
2019-06-10T02:03:04.786Z,29.10
2019-06-10T02:05:36.233Z,29.20
2019-06-10T02:08:08.626Z,29.20
2019-06-10T02:10:41.544Z,29.30
2019-06-10T02:13:15.118Z,29.30
2019-06-10T02:15:46.856Z,29.40
2019-06-10T02:18:21.210Z,29.40
2019-06-10T02:20:51.485Z,29.50
2019-06-10T02:23:23.980Z,29.50
2019-06-10T02:25:55.454Z,29.60
2019-06-10T02:28:31.336Z,29.70
2019-06-10T02:31:03.339Z,29.70
2019-06-10T02:33:36.559Z,29.80
2019-06-10T02:36:05.342Z,29.80
2019-06-10T02:38:39.615Z,30.00
2019-06-10T02:41:18.127Z,30.00
2019-06-10T02:43:46.804Z,30.10
2019-06-10T02:46:23.445Z,30.10
2019-06-10T02:48:54.477Z,30.20
2019-06-10T02:51:30.807Z,30.20
2019-06-10T02:53:58.525Z,30.30
2019-06-10T02:56:35.866Z,30.30
2019-06-10T02:59:04.568Z,30.40
2019-06-10T03:01:37.986Z,30.50
2019-06-10T03:04:13.499Z,30.50
2019-06-10T03:06:44.831Z,30.60
2019-06-10T03:09:16.614Z,30.70
2019-06-10T03:11:53.338Z,30.70
2019-06-10T03:14:25.354Z,30.70
2019-06-10T03:16:57.835Z,30.70
2019-06-10T03:19:42.252Z,30.80
2019-06-10T03:22:02.744Z,30.80
2019-06-10T03:24:34.135Z,30.90
2019-06-10T03:27:05.283Z,30.90
2019-06-10T03:29:37.442Z,30.90
2019-06-10T03:32:08.693Z,30.90
2019-06-10T03:34:43.007Z,31.00
2019-06-10T03:37:13.488Z,31.00
2019-06-10T03:39:44.790Z,31.00
2019-06-10T03:42:16.832Z,31.00
2019-06-10T03:44:49.020Z,31.10
2019-06-10T03:47:23.876Z,31.20
2019-06-10T03:49:56.234Z,31.20
2019-06-10T03:52:27.222Z,31.20
2019-06-10T03:54:59.334Z,31.20
2019-06-10T03:57:30.429Z,31.30
2019-06-10T04:00:02.252Z,31.40
2019-06-10T04:02:33.969Z,31.50
2019-06-10T04:05:05.680Z,31.60
2019-06-10T04:07:37.774Z,31.70
2019-06-10T04:10:09.418Z,31.70
2019-06-10T04:12:43.269Z,31.80
2019-06-10T04:15:13.330Z,31.70
2019-06-10T04:17:44.379Z,31.80
2019-06-10T04:20:17.764Z,31.90
2019-06-10T04:22:52.287Z,31.80
2019-06-10T04:25:28.256Z,31.70
2019-06-10T04:27:58.581Z,31.70
2019-06-10T04:30:32.516Z,31.70
2019-06-10T04:33:09.333Z,31.80
2019-06-10T04:35:43.608Z,31.90
2019-06-10T04:38:16.238Z,31.90
2019-06-10T04:40:52.408Z,32.00
2019-06-10T04:43:25.996Z,32.10
2019-06-10T04:45:57.511Z,32.20
2019-06-10T04:48:29.382Z,32.30
2019-06-10T04:51:02.736Z,32.30
2019-06-10T04:53:34.797Z,32.30
2019-06-10T04:56:05.968Z,32.40
2019-06-10T04:58:38.779Z,32.40
2019-06-10T05:01:12.125Z,32.50
2019-06-10T05:03:45.006Z,32.60
2019-06-10T05:06:16.035Z,32.60
2019-06-10T05:08:47.727Z,32.70
2019-06-10T05:11:19.114Z,32.80
2019-06-10T05:13:53.084Z,32.80
2019-06-10T05:16:26.842Z,32.80
2019-06-10T05:18:57.268Z,32.80
2019-06-10T05:21:31.554Z,32.90
2019-06-10T05:24:03.048Z,32.90
2019-06-10T05:26:35.980Z,33.00
2019-06-10T05:29:07.114Z,33.10
2019-06-10T05:31:38.656Z,33.20
2019-06-10T05:34:13.091Z,33.30
2019-06-10T05:36:44.578Z,33.30
2019-06-10T05:39:15.980Z,33.40
2019-06-10T05:41:50.127Z,33.40
2019-06-10T05:44:23.807Z,33.40
2019-06-10T05:46:53.596Z,33.50
2019-06-10T05:49:26.237Z,33.50
2019-06-10T05:51:58.569Z,33.60
2019-06-10T05:54:33.322Z,33.60
2019-06-10T05:57:04.827Z,33.60
2019-06-10T05:59:36.420Z,33.60
2019-06-10T06:02:07.966Z,33.60
2019-06-10T06:04:42.772Z,33.70
2019-06-10T06:07:14.102Z,33.70
2019-06-10T06:09:46.878Z,33.80
2019-06-10T06:12:18.215Z,33.80
2019-06-10T06:14:49.775Z,33.70
2019-06-10T06:17:23.596Z,33.70
2019-06-10T06:19:56.047Z,33.70
2019-06-10T06:22:27.872Z,33.70
2019-06-10T06:25:03.721Z,33.70
2019-06-10T06:27:36.408Z,33.80
2019-06-10T06:30:13.719Z,33.90
2019-06-10T06:32:43.630Z,33.90
2019-06-10T06:35:14.204Z,33.90
2019-06-10T06:37:46.765Z,33.90
2019-06-10T06:40:18.044Z,33.90
2019-06-10T06:42:49.362Z,33.90
2019-06-10T06:45:22.209Z,33.90
2019-06-10T06:47:54.614Z,34.00
2019-06-10T06:50:28.350Z,34.00
2019-06-10T06:53:20.037Z,34.00
2019-06-10T06:55:34.673Z,34.00
2019-06-10T06:58:06.948Z,34.00
2019-06-10T07:00:54.369Z,34.00
2019-06-10T07:03:09.871Z,33.90
2019-06-10T07:05:43.378Z,33.90
2019-06-10T07:08:13.997Z,33.90
2019-06-10T07:10:46.900Z,33.90
2019-06-10T07:13:18.409Z,33.90
2019-06-10T07:15:53.280Z,33.90
2019-06-10T07:18:23.980Z,33.90
2019-06-10T07:20:55.233Z,34.00
2019-06-10T07:23:27.818Z,34.00
2019-06-10T07:26:02.103Z,34.00
2019-06-10T07:28:35.240Z,34.00
2019-06-10T07:31:19.916Z,34.10
2019-06-10T07:33:45.153Z,34.10
2019-06-10T07:36:14.979Z,34.10
2019-06-10T07:38:48.593Z,34.10
2019-06-10T07:41:18.816Z,34.10
2019-06-10T07:43:52.748Z,34.10
2019-06-10T07:46:24.290Z,34.10
2019-06-10T07:48:56.598Z,34.10
2019-06-10T07:51:29.822Z,34.10
2019-06-10T07:54:03.253Z,34.10
2019-06-10T07:56:40.528Z,34.10
2019-06-10T07:59:08.392Z,34.20
2019-06-10T08:01:48.415Z,34.20
2019-06-10T08:04:18.789Z,34.10
2019-06-10T08:06:53.021Z,34.10
2019-06-10T08:09:24.418Z,34.20
2019-06-10T08:11:55.868Z,34.20
2019-06-10T08:14:28.376Z,34.20
2019-06-10T08:17:02.952Z,34.20
2019-06-10T08:19:37.671Z,34.30
2019-06-10T08:22:05.482Z,34.30
2019-06-10T08:24:37.861Z,34.30
2019-06-10T08:27:09.127Z,34.30
2019-06-10T08:29:41.607Z,34.30
2019-06-10T08:32:13.203Z,34.40
2019-06-10T08:34:47.742Z,34.40
2019-06-10T08:37:18.615Z,34.40
2019-06-10T08:39:50.038Z,34.30
2019-06-10T08:42:23.268Z,34.40
2019-06-10T08:44:59.101Z,34.40
2019-06-10T08:47:29.042Z,34.30
2019-06-10T08:50:02.673Z,34.30
2019-06-10T08:52:51.806Z,34.20
2019-06-10T08:55:09.352Z,34.10
2019-06-10T08:57:43.691Z,34.10
2019-06-10T09:00:18.627Z,34.00
2019-06-10T09:02:51.421Z,34.00
2019-06-10T09:05:23.761Z,34.00
2019-06-10T09:07:55.011Z,34.00
2019-06-10T09:10:26.289Z,34.00
2019-06-10T09:13:02.618Z,33.90
2019-06-10T09:15:34.753Z,33.90
2019-06-10T09:18:07.939Z,33.80
2019-06-10T09:20:41.461Z,33.80
2019-06-10T09:23:21.864Z,33.80
2019-06-10T09:25:50.467Z,33.80
2019-06-10T09:28:19.185Z,33.80
2019-06-10T09:30:54.032Z,33.80
2019-06-10T09:33:23.212Z,33.70
2019-06-10T09:35:55.042Z,33.70
2019-06-10T09:38:27.848Z,33.70
2019-06-10T09:41:02.919Z,33.70
2019-06-10T09:43:33.031Z,33.70
2019-06-10T09:46:03.759Z,33.70
2019-06-10T09:48:36.268Z,33.70
2019-06-10T09:51:06.594Z,33.60
2019-06-10T09:53:42.869Z,33.60
2019-06-10T09:56:12.339Z,33.60
2019-06-10T09:58:47.513Z,33.60
2019-06-10T10:01:16.492Z,33.50
2019-06-10T10:03:53.452Z,33.50
2019-06-10T10:06:19.383Z,33.50
2019-06-10T10:08:57.474Z,33.50
2019-06-10T10:11:28.194Z,33.50
2019-06-10T10:13:55.640Z,33.50
2019-06-10T10:16:27.136Z,33.40
2019-06-10T10:19:00.559Z,33.40
2019-06-10T10:21:33.126Z,33.30
2019-06-10T10:24:09.884Z,33.20
2019-06-10T10:26:37.827Z,33.20
2019-06-10T10:29:09.276Z,33.10
2019-06-10T10:31:45.037Z,33.00
2019-06-10T10:34:14.647Z,33.00
2019-06-10T10:36:48.349Z,33.00
2019-06-10T10:39:22.054Z,33.00
2019-06-10T10:41:56.816Z,32.90
2019-06-10T10:44:27.555Z,32.90
2019-06-10T10:46:58.789Z,32.90
2019-06-10T10:49:32.449Z,32.90
2019-06-10T10:52:03.927Z,32.90
2019-06-10T10:54:36.885Z,32.80
2019-06-10T10:57:08.971Z,32.80
2019-06-10T10:59:40.191Z,32.80
2019-06-10T11:02:12.683Z,32.70
2019-06-10T11:04:46.221Z,32.70
2019-06-10T11:07:22.350Z,32.70
2019-06-10T11:09:56.725Z,32.70
2019-06-10T11:12:28.049Z,32.60
2019-06-10T11:15:01.985Z,32.60
2019-06-10T11:17:34.862Z,32.50
2019-06-10T11:20:07.589Z,32.50
2019-06-10T11:22:38.673Z,32.40
2019-06-10T11:25:12.441Z,32.40
2019-06-10T11:27:43.892Z,32.40
2019-06-10T11:30:14.369Z,32.30
2019-06-10T11:32:46.110Z,32.30
2019-06-10T11:35:18.588Z,32.20
2019-06-10T11:37:54.058Z,32.10
2019-06-10T11:40:26.193Z,32.00
2019-06-10T11:42:59.830Z,31.90
2019-06-10T11:45:32.882Z,31.80
2019-06-10T11:48:03.260Z,31.70
2019-06-10T11:50:34.378Z,31.60
2019-06-10T11:53:06.429Z,31.50
2019-06-10T11:55:38.859Z,31.40
2019-06-10T11:58:10.032Z,31.20
2019-06-10T12:00:42.650Z,31.10
2019-06-10T12:03:14.982Z,31.00
2019-06-10T12:05:48.983Z,30.80
2019-06-10T12:08:23.395Z,30.80
2019-06-10T12:10:58.292Z,30.70
2019-06-10T12:13:25.975Z,30.60
2019-06-10T12:18:29.418Z,30.50
2019-06-10T12:21:03.572Z,30.40
2019-06-10T12:23:33.862Z,30.40
2019-06-10T12:26:05.427Z,30.30
2019-06-10T12:28:36.422Z,30.30
2019-06-10T12:31:07.628Z,30.20
2019-06-10T12:33:38.580Z,30.20
2019-06-10T12:36:09.688Z,30.10
2019-06-10T12:38:43.458Z,30.10
2019-06-10T12:41:14.114Z,30.00
2019-06-10T12:43:45.340Z,29.90
2019-06-10T12:46:16.414Z,29.90
2019-06-10T12:48:47.576Z,29.90
2019-06-10T12:51:22.712Z,29.90
2019-06-10T12:53:55.242Z,29.80
2019-06-10T12:56:26.511Z,29.80
2019-06-10T12:58:59.674Z,29.80
2019-06-10T13:01:32.985Z,29.70
2019-06-10T13:04:07.367Z,29.70
2019-06-10T13:06:36.649Z,29.70
2019-06-10T13:09:12.770Z,29.70
2019-06-10T13:11:43.964Z,29.60
2019-06-10T13:14:18.262Z,29.60
2019-06-10T13:16:52.637Z,29.70
2019-06-10T13:19:23.641Z,29.70
2019-06-10T13:21:55.360Z,29.70
2019-06-10T13:24:26.577Z,29.70
2019-06-10T13:26:58.714Z,29.70
2019-06-10T13:29:29.701Z,29.70
2019-06-10T13:32:04.906Z,29.60
2019-06-10T13:34:36.230Z,29.60
2019-06-10T13:37:08.634Z,29.50
2019-06-10T13:39:42.910Z,29.60
2019-06-10T13:42:14.551Z,29.50
2019-06-10T13:44:45.739Z,29.50
2019-06-10T13:47:17.820Z,29.50
2019-06-10T13:49:50.030Z,29.50
2019-06-10T13:52:23.146Z,29.50
2019-06-10T13:54:54.483Z,29.40
2019-06-10T13:57:26.989Z,29.40
2019-06-10T13:59:59.269Z,29.40
2019-06-10T14:02:32.331Z,29.40
2019-06-10T14:05:08.299Z,29.40
2019-06-10T14:07:36.669Z,29.40
2019-06-10T14:10:16.682Z,29.30
2019-06-10T14:12:43.275Z,29.30
2019-06-10T14:15:16.925Z,29.30
2019-06-10T14:17:47.525Z,29.30
2019-06-10T14:20:19.625Z,29.30
2019-06-10T14:22:52.835Z,29.30
2019-06-10T14:25:23.843Z,29.20
2019-06-10T14:27:56.237Z,29.20
2019-06-10T14:30:28.202Z,29.20
2019-06-10T14:33:02.348Z,29.10
2019-06-10T14:35:33.142Z,29.10
2019-06-10T14:38:06.388Z,29.10
2019-06-10T14:40:37.513Z,29.00
2019-06-10T14:43:08.829Z,29.00
2019-06-10T14:45:42.338Z,28.90
2019-06-10T14:48:15.721Z,28.90
2019-06-10T14:50:47.097Z,28.90
2019-06-10T14:53:19.157Z,28.80
2019-06-10T14:55:52.875Z,28.80
2019-06-10T14:58:23.478Z,28.80
2019-06-10T15:00:54.770Z,28.80
2019-06-10T15:03:26.677Z,28.80
2019-06-10T15:05:57.779Z,28.70
2019-06-10T15:08:29.205Z,28.70
2019-06-10T15:11:01.122Z,28.70
2019-06-10T15:13:52.846Z,28.70
2019-06-10T15:16:24.008Z,28.60
2019-06-10T15:19:10.921Z,28.60
2019-06-10T15:21:28.410Z,28.60
2019-06-10T15:23:59.549Z,28.60
2019-06-10T15:26:32.659Z,28.60
2019-06-10T15:29:04.903Z,28.60
2019-06-10T15:31:36.051Z,28.60
2019-06-10T15:34:08.579Z,28.50
2019-06-10T15:36:39.947Z,28.50
2019-06-10T15:39:16.379Z,28.50
2019-06-10T15:41:46.337Z,28.50
2019-06-10T15:44:35.410Z,28.50
2019-06-10T15:46:52.538Z,28.50
2019-06-10T15:49:26.087Z,28.50
2019-06-10T15:51:57.256Z,28.40
2019-06-10T15:54:28.621Z,28.40
2019-06-10T15:56:59.817Z,28.40
2019-06-10T15:59:30.838Z,28.40
2019-06-10T16:02:02.616Z,28.30
2019-06-10T16:04:35.277Z,28.40
2019-06-10T16:07:07.676Z,28.30
2019-06-10T16:09:38.756Z,28.30
2019-06-10T16:12:09.870Z,28.20
2019-06-10T16:14:42.517Z,28.20
2019-06-10T16:17:14.185Z,28.20
2019-06-10T16:19:45.282Z,28.20
2019-06-10T16:22:17.209Z,28.20
2019-06-10T16:24:48.684Z,28.20
2019-06-10T16:27:20.488Z,28.20
2019-06-10T16:29:52.977Z,28.20
2019-06-10T16:32:26.427Z,28.20
2019-06-10T16:34:58.748Z,28.20
2019-06-10T16:37:29.740Z,28.20
2019-06-10T16:40:03.170Z,28.10
2019-06-10T16:42:34.496Z,28.10
2019-06-10T16:45:07.501Z,28.10
2019-06-10T16:47:39.547Z,28.10
2019-06-10T16:50:12.657Z,28.10
2019-06-10T16:52:44.534Z,28.10
2019-06-10T16:55:17.507Z,28.10
2019-06-10T16:57:58.756Z,28.10
2019-06-10T17:00:23.123Z,28.00
2019-06-10T17:02:54.370Z,27.90
2019-06-10T17:05:27.525Z,27.90
2019-06-10T17:07:57.984Z,27.80
2019-06-10T17:10:34.334Z,27.80
2019-06-10T17:13:06.295Z,27.80
2019-06-10T17:15:37.453Z,27.80
2019-06-10T17:18:09.450Z,27.70
2019-06-10T17:20:42.790Z,27.70
2019-06-10T17:23:16.367Z,27.70
2019-06-10T17:25:48.545Z,27.70
2019-06-10T17:28:20.781Z,27.70
2019-06-10T17:30:53.005Z,27.60
2019-06-10T17:33:26.151Z,27.60
2019-06-10T17:35:58.782Z,27.60
2019-06-10T17:38:31.216Z,27.60
2019-06-10T17:41:02.980Z,27.60
2019-06-10T17:43:35.359Z,27.50
2019-06-10T17:46:07.457Z,27.50
2019-06-10T17:48:39.776Z,27.50
2019-06-10T17:51:11.716Z,27.50
2019-06-10T17:53:44.309Z,27.50
2019-06-10T17:56:15.322Z,27.50
2019-06-10T17:58:54.306Z,27.50
2019-06-10T18:01:22.539Z,27.50
2019-06-10T18:03:53.147Z,27.50
2019-06-10T18:06:24.535Z,27.50
2019-06-10T18:08:58.921Z,27.50
2019-06-10T18:11:32.588Z,27.40
2019-06-10T18:14:03.307Z,27.40
2019-06-10T18:16:36.616Z,27.40
2019-06-10T18:19:08.041Z,27.40
2019-06-10T18:21:39.858Z,27.40
2019-06-10T18:24:12.717Z,27.40
2019-06-10T18:26:44.998Z,27.40
2019-06-10T18:29:17.352Z,27.30
2019-06-10T18:31:48.633Z,27.30
2019-06-10T18:34:19.477Z,27.30
2019-06-10T18:36:52.134Z,27.30
2019-06-10T18:39:22.846Z,27.30
2019-06-10T18:41:55.105Z,27.30
2019-06-10T18:44:28.161Z,27.20
2019-06-10T18:47:02.761Z,27.30
2019-06-10T18:49:36.257Z,27.20
2019-06-10T18:52:08.410Z,27.20
2019-06-10T18:54:40.334Z,27.20
2019-06-10T18:57:12.286Z,27.20
2019-06-10T18:59:44.120Z,27.20
2019-06-10T19:02:16.003Z,27.20
2019-06-10T19:04:47.216Z,27.20
2019-06-10T19:07:19.273Z,27.20
2019-06-10T19:09:52.924Z,27.20
2019-06-10T19:12:24.728Z,27.10
2019-06-10T19:14:56.888Z,27.10
2019-06-10T19:17:30.378Z,27.10
2019-06-10T19:20:03.916Z,27.10
2019-06-10T19:22:35.643Z,27.10
2019-06-10T19:25:09.355Z,27.10
2019-06-10T19:27:44.291Z,27.10
2019-06-10T19:30:18.247Z,27.10
2019-06-10T19:32:49.320Z,27.10
2019-06-10T19:35:22.378Z,27.10
2019-06-10T19:37:54.487Z,27.10
2019-06-10T19:40:25.600Z,27.10
2019-06-10T19:42:58.062Z,27.10
2019-06-10T19:45:32.172Z,27.10
2019-06-10T19:48:03.617Z,27.10
2019-06-10T19:50:36.030Z,27.10
2019-06-10T19:53:12.742Z,27.10
2019-06-10T19:55:44.468Z,27.10
2019-06-10T19:58:17.051Z,27.10
2019-06-10T20:00:53.613Z,27.10
2019-06-10T20:03:22.374Z,27.10
2019-06-10T20:05:54.677Z,27.10
2019-06-10T20:08:26.698Z,27.10
2019-06-10T20:11:03.262Z,27.10
2019-06-10T20:13:34.406Z,27.10
2019-06-10T20:16:05.514Z,27.10
2019-06-10T20:18:37.799Z,27.10
2019-06-10T20:21:08.993Z,27.20
2019-06-10T20:23:42.729Z,27.20
2019-06-10T20:26:12.374Z,27.20
2019-06-10T20:28:46.698Z,27.20
2019-06-10T20:31:18.383Z,27.20
2019-06-10T20:33:52.342Z,27.20
2019-06-10T20:36:27.026Z,27.20
2019-06-10T20:38:58.273Z,27.20
2019-06-10T20:41:29.667Z,27.20
2019-06-10T20:44:03.767Z,27.20
2019-06-10T20:46:35.631Z,27.20
2019-06-10T20:49:08.030Z,27.20
2019-06-10T20:51:56.989Z,27.20
2019-06-10T20:54:14.912Z,27.20
2019-06-10T20:56:49.156Z,27.20
2019-06-10T20:59:22.526Z,27.20
2019-06-10T21:01:53.651Z,27.20
2019-06-10T21:04:25.700Z,27.20
2019-06-10T21:06:57.638Z,27.20
2019-06-10T21:09:28.874Z,27.20
2019-06-10T21:12:02.115Z,27.20
2019-06-10T21:14:36.077Z,27.20
2019-06-10T21:17:12.088Z,27.20
2019-06-10T21:19:44.917Z,27.20
2019-06-10T21:22:16.259Z,27.20
2019-06-10T21:24:50.738Z,27.20
2019-06-10T21:27:24.921Z,27.30
2019-06-10T21:29:57.073Z,27.30
2019-06-10T21:32:29.289Z,27.30
2019-06-10T21:35:03.466Z,27.30
2019-06-10T21:37:36.139Z,27.30
2019-06-10T21:40:07.225Z,27.30
2019-06-10T21:42:39.462Z,27.30
2019-06-10T21:45:12.482Z,27.30
2019-06-10T21:47:45.935Z,27.30
2019-06-10T21:50:18.727Z,27.30
2019-06-10T21:52:51.109Z,27.30
2019-06-10T21:55:23.342Z,27.30
2019-06-10T21:57:55.391Z,27.30
2019-06-10T22:00:30.101Z,27.30
2019-06-10T22:03:02.787Z,27.30
2019-06-10T22:05:34.196Z,27.30
2019-06-10T22:08:06.847Z,27.30
2019-06-10T22:10:37.891Z,27.30
2019-06-10T22:13:12.130Z,27.30
2019-06-10T22:15:44.267Z,27.30
2019-06-10T22:18:16.370Z,27.30
2019-06-10T22:20:48.801Z,27.30
2019-06-10T22:23:23.047Z,27.30
2019-06-10T22:25:55.894Z,27.30
2019-06-10T22:28:27.449Z,27.30
2019-06-10T22:31:15.163Z,27.30
2019-06-10T22:33:34.341Z,27.30
2019-06-10T22:36:06.788Z,27.40
2019-06-10T22:38:38.901Z,27.30
2019-06-10T22:41:12.318Z,27.30
2019-06-10T22:43:44.841Z,27.30
2019-06-10T22:46:16.163Z,27.30
2019-06-10T22:48:48.958Z,27.30
2019-06-10T22:51:18.909Z,27.30
2019-06-10T22:53:54.842Z,27.30
2019-06-10T22:56:25.274Z,27.30
2019-06-10T22:58:57.477Z,27.30
2019-06-10T23:01:37.427Z,27.30
2019-06-10T23:04:04.255Z,27.30
2019-06-10T23:06:36.350Z,27.30
2019-06-10T23:09:09.686Z,27.30
2019-06-10T23:11:42.431Z,27.30
2019-06-10T23:14:13.874Z,27.30
2019-06-10T23:16:44.853Z,27.30
2019-06-10T23:19:15.897Z,27.30
2019-06-10T23:21:49.175Z,27.30
2019-06-10T23:24:23.265Z,27.30
2019-06-10T23:26:55.837Z,27.30
2019-06-10T23:29:27.124Z,27.40
2019-06-10T23:32:03.690Z,27.40
2019-06-10T23:34:33.048Z,27.40
2019-06-10T23:37:04.343Z,27.40
2019-06-10T23:39:36.224Z,27.40
2019-06-10T23:42:08.237Z,27.40
2019-06-10T23:44:40.359Z,27.50
2019-06-10T23:47:12.743Z,27.50
2019-06-10T23:49:44.444Z,27.50
2019-06-10T23:52:15.723Z,27.50
2019-06-10T23:54:49.714Z,27.50
2019-06-10T23:57:22.328Z,27.50
2019-06-10T23:59:54.065Z,27.50
